sensor_id;sensor_type;location;lat;lon;timestamp;pressure;altitude;pressure_sealevel;temperature;humidity
71666;BME280;59503;53.486;10.196;2023-02-16T00:00:30;102326.06;;;0.49;100.00
71666;BME280;59503;53.486;10.196;2023-02-16T00:02:56;102328.19;;;0.47;100.00
71666;BME280;59503;53.486;10.196;2023-02-16T00:05:33;102323.97;;;0.56;100.00
71666;BME280;59503;53.486;10.196;2023-02-16T00:07:59;102325.31;;;0.54;100.00
71666;BME280;59503;53.486;10.196;2023-02-16T00:10:27;102328.81;;;0.59;100.00
71666;BME280;59503;53.486;10.196;2023-02-16T00:12:55;102324.19;;;0.50;100.00
71666;BME280;59503;53.486;10.196;2023-02-16T00:15:39;102323.59;;;0.43;100.00
71666;BME280;59503;53.486;10.196;2023-02-16T00:18:16;102317.13;;;0.39;100.00
71666;BME280;59503;53.486;10.196;2023-02-16T00:20:41;102322.22;;;0.35;100.00
71666;BME280;59503;53.486;10.196;2023-02-16T00:23:07;102316.09;;;0.40;100.00
71666;BME280;59503;53.486;10.196;2023-02-16T00:25:32;102319.78;;;0.34;100.00
71666;BME280;59503;53.486;10.196;2023-02-16T00:27:59;102325.13;;;0.34;100.00
71666;BME280;59503;53.486;10.196;2023-02-16T00:30:24;102321.63;;;0.28;100.00
71666;BME280;59503;53.486;10.196;2023-02-16T00:32:50;102324.59;;;0.32;100.00
71666;BME280;59503;53.486;10.196;2023-02-16T00:35:17;102322.41;;;0.29;100.00
71666;BME280;59503;53.486;10.196;2023-02-16T00:37:43;102315.97;;;0.25;100.00
71666;BME280;59503;53.486;10.196;2023-02-16T00:40:09;102330.16;;;0.25;100.00
71666;BME280;59503;53.486;10.196;2023-02-16T00:42:35;102310.84;;;0.18;100.00
71666;BME280;59503;53.486;10.196;2023-02-16T00:45:02;102312.94;;;0.16;100.00
71666;BME280;59503;53.486;10.196;2023-02-16T00:47:31;102315.88;;;0.15;100.00
71666;BME280;59503;53.486;10.196;2023-02-16T00:49:58;102304.06;;;0.11;100.00
71666;BME280;59503;53.486;10.196;2023-02-16T00:52:38;102313.47;;;0.13;100.00
71666;BME280;59503;53.486;10.196;2023-02-16T00:55:15;102316.13;;;0.13;100.00
71666;BME280;59503;53.486;10.196;2023-02-16T00:57:44;102302.78;;;0.13;100.00
71666;BME280;59503;53.486;10.196;2023-02-16T01:00:38;102302.25;;;0.16;100.00
71666;BME280;59503;53.486;10.196;2023-02-16T01:03:08;102301.19;;;0.17;100.00
71666;BME280;59503;53.486;10.196;2023-02-16T01:05:34;102301.78;;;0.24;100.00
71666;BME280;59503;53.486;10.196;2023-02-16T01:08:00;102300.84;;;0.35;100.00
71666;BME280;59503;53.486;10.196;2023-02-16T01:10:47;102292.53;;;0.37;100.00
71666;BME280;59503;53.486;10.196;2023-02-16T01:13:26;102299.72;;;0.31;100.00
71666;BME280;59503;53.486;10.196;2023-02-16T01:15:52;102298.34;;;0.29;100.00
71666;BME280;59503;53.486;10.196;2023-02-16T01:18:19;102299.66;;;0.26;100.00
71666;BME280;59503;53.486;10.196;2023-02-16T01:20:45;102299.63;;;0.21;100.00
71666;BME280;59503;53.486;10.196;2023-02-16T01:23:11;102298.56;;;0.22;100.00
71666;BME280;59503;53.486;10.196;2023-02-16T01:25:37;102295.59;;;0.19;100.00
71666;BME280;59503;53.486;10.196;2023-02-16T01:28:03;102295.88;;;0.22;100.00
71666;BME280;59503;53.486;10.196;2023-02-16T01:30:40;102300.41;;;0.17;100.00
71666;BME280;59503;53.486;10.196;2023-02-16T01:33:05;102292.69;;;0.20;100.00
71666;BME280;59503;53.486;10.196;2023-02-16T01:35:32;102283.28;;;0.18;100.00
71666;BME280;59503;53.486;10.196;2023-02-16T01:37:58;102292.75;;;0.30;100.00
71666;BME280;59503;53.486;10.196;2023-02-16T01:45:34;102287.41;;;0.30;100.00
71666;BME280;59503;53.486;10.196;2023-02-16T01:48:16;102284.50;;;0.32;100.00
71666;BME280;59503;53.486;10.196;2023-02-16T01:50:50;102282.63;;;0.37;100.00
71666;BME280;59503;53.486;10.196;2023-02-16T01:53:22;102279.19;;;0.37;100.00
71666;BME280;59503;53.486;10.196;2023-02-16T01:55:55;102277.81;;;0.34;100.00
71666;BME280;59503;53.486;10.196;2023-02-16T02:03:27;102268.09;;;0.23;100.00
71666;BME280;59503;53.486;10.196;2023-02-16T02:06:20;102262.72;;;0.18;100.00
71666;BME280;59503;53.486;10.196;2023-02-16T02:11:59;102266.38;;;0.12;100.00
71666;BME280;59503;53.486;10.196;2023-02-16T02:14:34;102272.81;;;0.11;100.00
71666;BME280;59503;53.486;10.196;2023-02-16T02:17:05;102268.28;;;0.12;100.00
71666;BME280;59503;53.486;10.196;2023-02-16T02:19:44;102268.75;;;0.09;100.00
71666;BME280;59503;53.486;10.196;2023-02-16T02:25:40;102272.03;;;0.16;100.00
71666;BME280;59503;53.486;10.196;2023-02-16T02:28:16;102262.16;;;0.16;100.00
71666;BME280;59503;53.486;10.196;2023-02-16T02:31:02;102272.91;;;0.21;100.00
71666;BME280;59503;53.486;10.196;2023-02-16T02:36:14;102265.13;;;0.20;100.00
71666;BME280;59503;53.486;10.196;2023-02-16T02:44:33;102261.66;;;0.19;100.00
71666;BME280;59503;53.486;10.196;2023-02-16T02:47:02;102256.72;;;0.06;100.00
71666;BME280;59503;53.486;10.196;2023-02-16T02:49:28;102265.88;;;0.10;100.00
71666;BME280;59503;53.486;10.196;2023-02-16T02:51:53;102259.41;;;0.06;100.00
71666;BME280;59503;53.486;10.196;2023-02-16T02:54:22;102263.41;;;0.09;100.00
71666;BME280;59503;53.486;10.196;2023-02-16T02:57:23;102260.97;;;0.02;100.00
71666;BME280;59503;53.486;10.196;2023-02-16T03:00:13;102264.44;;;0.03;100.00
71666;BME280;59503;53.486;10.196;2023-02-16T03:05:50;102252.97;;;0.07;100.00
71666;BME280;59503;53.486;10.196;2023-02-16T03:08:18;102241.72;;;0.00;100.00
71666;BME280;59503;53.486;10.196;2023-02-16T03:10:51;102243.88;;;0.03;100.00
71666;BME280;59503;53.486;10.196;2023-02-16T03:13:38;102247.47;;;0.19;100.00
71666;BME280;59503;53.486;10.196;2023-02-16T03:16:10;102251.50;;;0.21;100.00
71666;BME280;59503;53.486;10.196;2023-02-16T03:18:39;102234.38;;;0.22;100.00
71666;BME280;59503;53.486;10.196;2023-02-16T03:21:25;102231.50;;;0.29;100.00
71666;BME280;59503;53.486;10.196;2023-02-16T03:24:15;102227.03;;;0.39;100.00
71666;BME280;59503;53.486;10.196;2023-02-16T03:27:02;102230.25;;;0.41;100.00
71666;BME280;59503;53.486;10.196;2023-02-16T03:29:47;102223.84;;;0.47;100.00
71666;BME280;59503;53.486;10.196;2023-02-16T03:32:15;102242.13;;;0.55;100.00
71666;BME280;59503;53.486;10.196;2023-02-16T03:34:41;102239.22;;;0.62;100.00
71666;BME280;59503;53.486;10.196;2023-02-16T03:37:06;102230.31;;;0.51;100.00
71666;BME280;59503;53.486;10.196;2023-02-16T03:39:32;102240.53;;;0.59;100.00
71666;BME280;59503;53.486;10.196;2023-02-16T03:42:19;102237.81;;;0.54;100.00
71666;BME280;59503;53.486;10.196;2023-02-16T03:44:45;102237.25;;;0.47;100.00
71666;BME280;59503;53.486;10.196;2023-02-16T03:47:11;102232.97;;;0.46;100.00
71666;BME280;59503;53.486;10.196;2023-02-16T03:49:36;102227.06;;;0.44;100.00
71666;BME280;59503;53.486;10.196;2023-02-16T03:52:01;102218.41;;;0.32;100.00
71666;BME280;59503;53.486;10.196;2023-02-16T03:54:27;102227.50;;;0.31;100.00
71666;BME280;59503;53.486;10.196;2023-02-16T03:56:52;102221.63;;;0.29;100.00
71666;BME280;59503;53.486;10.196;2023-02-16T03:59:18;102225.88;;;0.25;100.00
71666;BME280;59503;53.486;10.196;2023-02-16T04:01:44;102217.31;;;0.23;100.00
71666;BME280;59503;53.486;10.196;2023-02-16T04:04:09;102215.38;;;0.19;100.00
71666;BME280;59503;53.486;10.196;2023-02-16T04:06:35;102213.25;;;0.21;100.00
71666;BME280;59503;53.486;10.196;2023-02-16T04:09:00;102212.97;;;0.17;100.00
71666;BME280;59503;53.486;10.196;2023-02-16T04:11:26;102214.03;;;0.16;100.00
71666;BME280;59503;53.486;10.196;2023-02-16T04:14:10;102218.31;;;0.17;100.00
71666;BME280;59503;53.486;10.196;2023-02-16T04:16:35;102199.06;;;0.15;100.00
71666;BME280;59503;53.486;10.196;2023-02-16T04:19:01;102200.16;;;0.19;100.00
71666;BME280;59503;53.486;10.196;2023-02-16T04:21:26;102196.44;;;0.20;100.00
71666;BME280;59503;53.486;10.196;2023-02-16T04:23:51;102198.03;;;0.21;100.00
71666;BME280;59503;53.486;10.196;2023-02-16T04:26:17;102192.09;;;0.14;100.00
71666;BME280;59503;53.486;10.196;2023-02-16T04:28:42;102198.81;;;0.17;100.00
71666;BME280;59503;53.486;10.196;2023-02-16T04:31:08;102195.59;;;0.15;100.00
71666;BME280;59503;53.486;10.196;2023-02-16T04:33:33;102194.22;;;0.12;100.00
71666;BME280;59503;53.486;10.196;2023-02-16T04:35:59;102201.66;;;0.05;100.00
71666;BME280;59503;53.486;10.196;2023-02-16T04:38:24;102204.31;;;0.00;100.00
71666;BME280;59503;53.486;10.196;2023-02-16T04:40:50;102205.88;;;-0.04;100.00
71666;BME280;59503;53.486;10.196;2023-02-16T04:43:15;102207.72;;;-0.05;100.00
71666;BME280;59503;53.486;10.196;2023-02-16T04:45:41;102212.50;;;-0.07;100.00
71666;BME280;59503;53.486;10.196;2023-02-16T04:48:06;102212.72;;;-0.13;100.00
71666;BME280;59503;53.486;10.196;2023-02-16T04:50:32;102205.47;;;-0.18;100.00
71666;BME280;59503;53.486;10.196;2023-02-16T04:52:57;102206.28;;;-0.17;100.00
71666;BME280;59503;53.486;10.196;2023-02-16T04:55:23;102206.78;;;-0.20;100.00
71666;BME280;59503;53.486;10.196;2023-02-16T04:57:49;102203.28;;;-0.26;100.00
71666;BME280;59503;53.486;10.196;2023-02-16T05:00:15;102207.28;;;-0.23;100.00
71666;BME280;59503;53.486;10.196;2023-02-16T05:02:40;102202.25;;;-0.20;100.00
71666;BME280;59503;53.486;10.196;2023-02-16T05:05:07;102200.94;;;-0.17;100.00
71666;BME280;59503;53.486;10.196;2023-02-16T05:07:32;102202.59;;;-0.11;100.00
71666;BME280;59503;53.486;10.196;2023-02-16T05:09:58;102210.63;;;-0.11;100.00
71666;BME280;59503;53.486;10.196;2023-02-16T05:12:23;102204.19;;;-0.10;100.00
71666;BME280;59503;53.486;10.196;2023-02-16T05:15:07;102204.44;;;-0.12;100.00
71666;BME280;59503;53.486;10.196;2023-02-16T05:17:33;102201.28;;;-0.09;100.00
71666;BME280;59503;53.486;10.196;2023-02-16T05:19:59;102194.34;;;-0.05;100.00
71666;BME280;59503;53.486;10.196;2023-02-16T05:22:26;102197.28;;;-0.06;100.00
71666;BME280;59503;53.486;10.196;2023-02-16T05:24:53;102198.41;;;-0.02;100.00
71666;BME280;59503;53.486;10.196;2023-02-16T05:27:24;102203.75;;;-0.02;100.00
71666;BME280;59503;53.486;10.196;2023-02-16T05:29:50;102201.56;;;-0.05;100.00
71666;BME280;59503;53.486;10.196;2023-02-16T05:32:16;102185.50;;;-0.10;100.00
71666;BME280;59503;53.486;10.196;2023-02-16T05:34:42;102209.09;;;-0.02;100.00
71666;BME280;59503;53.486;10.196;2023-02-16T05:37:12;102198.88;;;-0.05;100.00
71666;BME280;59503;53.486;10.196;2023-02-16T05:39:38;102187.38;;;-0.11;100.00
71666;BME280;59503;53.486;10.196;2023-02-16T05:42:04;102196.28;;;0.00;100.00
71666;BME280;59503;53.486;10.196;2023-02-16T05:44:29;102192.75;;;-0.06;100.00
71666;BME280;59503;53.486;10.196;2023-02-16T05:46:55;102201.81;;;-0.07;100.00
71666;BME280;59503;53.486;10.196;2023-02-16T05:49:20;102202.63;;;-0.06;100.00
71666;BME280;59503;53.486;10.196;2023-02-16T05:51:46;102203.72;;;-0.07;100.00
71666;BME280;59503;53.486;10.196;2023-02-16T05:54:12;102210.91;;;-0.08;100.00
71666;BME280;59503;53.486;10.196;2023-02-16T05:56:45;102207.97;;;-0.06;100.00
71666;BME280;59503;53.486;10.196;2023-02-16T05:59:12;102202.63;;;-0.06;100.00
71666;BME280;59503;53.486;10.196;2023-02-16T06:01:38;102206.69;;;-0.04;100.00
71666;BME280;59503;53.486;10.196;2023-02-16T06:04:08;102203.75;;;-0.02;100.00
71666;BME280;59503;53.486;10.196;2023-02-16T06:06:35;102209.66;;;0.00;100.00
71666;BME280;59503;53.486;10.196;2023-02-16T06:09:02;102213.41;;;0.04;100.00
71666;BME280;59503;53.486;10.196;2023-02-16T06:11:28;102212.41;;;0.10;100.00
71666;BME280;59503;53.486;10.196;2023-02-16T06:14:04;102205.72;;;0.13;100.00
71666;BME280;59503;53.486;10.196;2023-02-16T06:16:32;102211.38;;;0.16;100.00
71666;BME280;59503;53.486;10.196;2023-02-16T06:18:58;102202.84;;;0.24;100.00
71666;BME280;59503;53.486;10.196;2023-02-16T06:21:25;102207.19;;;0.30;100.00
71666;BME280;59503;53.486;10.196;2023-02-16T06:23:51;102194.09;;;0.34;100.00
71666;BME280;59503;53.486;10.196;2023-02-16T06:26:17;102202.69;;;0.41;100.00
71666;BME280;59503;53.486;10.196;2023-02-16T06:28:43;102204.81;;;0.39;100.00
71666;BME280;59503;53.486;10.196;2023-02-16T06:31:08;102206.44;;;0.40;100.00
71666;BME280;59503;53.486;10.196;2023-02-16T06:33:34;102205.63;;;0.39;100.00
71666;BME280;59503;53.486;10.196;2023-02-16T06:35:59;102208.34;;;0.44;100.00
71666;BME280;59503;53.486;10.196;2023-02-16T06:38:25;102208.38;;;0.49;100.00
71666;BME280;59503;53.486;10.196;2023-02-16T06:40:51;102207.84;;;0.52;100.00
71666;BME280;59503;53.486;10.196;2023-02-16T06:43:17;102198.25;;;0.56;100.00
71666;BME280;59503;53.486;10.196;2023-02-16T06:45:42;102190.25;;;0.61;100.00
71666;BME280;59503;53.486;10.196;2023-02-16T06:48:07;102196.19;;;0.68;100.00
71666;BME280;59503;53.486;10.196;2023-02-16T06:50:33;102198.34;;;0.76;100.00
71666;BME280;59503;53.486;10.196;2023-02-16T06:52:58;102203.72;;;0.81;100.00
71666;BME280;59503;53.486;10.196;2023-02-16T06:55:23;102193.88;;;0.92;100.00
71666;BME280;59503;53.486;10.196;2023-02-16T06:57:49;102213.44;;;0.97;100.00
71666;BME280;59503;53.486;10.196;2023-02-16T07:00:15;102220.97;;;1.05;100.00
71666;BME280;59503;53.486;10.196;2023-02-16T07:02:40;102222.31;;;1.08;100.00
71666;BME280;59503;53.486;10.196;2023-02-16T07:05:08;102214.00;;;1.09;100.00
71666;BME280;59503;53.486;10.196;2023-02-16T07:07:33;102219.66;;;1.18;100.00
71666;BME280;59503;53.486;10.196;2023-02-16T07:09:58;102211.63;;;1.23;100.00
71666;BME280;59503;53.486;10.196;2023-02-16T07:12:24;102206.03;;;1.29;100.00
71666;BME280;59503;53.486;10.196;2023-02-16T07:14:49;102211.66;;;1.33;100.00
71666;BME280;59503;53.486;10.196;2023-02-16T07:17:14;102213.56;;;1.38;100.00
71666;BME280;59503;53.486;10.196;2023-02-16T07:19:40;102204.19;;;1.35;100.00
71666;BME280;59503;53.486;10.196;2023-02-16T07:22:06;102199.66;;;1.46;100.00
71666;BME280;59503;53.486;10.196;2023-02-16T07:24:31;102200.50;;;1.56;100.00
71666;BME280;59503;53.486;10.196;2023-02-16T07:26:57;102194.31;;;1.66;100.00
71666;BME280;59503;53.486;10.196;2023-02-16T07:29:22;102197.28;;;1.74;100.00
71666;BME280;59503;53.486;10.196;2023-02-16T07:31:47;102202.38;;;1.96;100.00
71666;BME280;59503;53.486;10.196;2023-02-16T07:34:13;102192.72;;;2.05;100.00
71666;BME280;59503;53.486;10.196;2023-02-16T07:36:38;102196.75;;;2.07;100.00
71666;BME280;59503;53.486;10.196;2023-02-16T07:39:05;102194.06;;;2.12;100.00
71666;BME280;59503;53.486;10.196;2023-02-16T07:41:30;102198.59;;;2.17;100.00
71666;BME280;59503;53.486;10.196;2023-02-16T07:43:56;102201.53;;;2.25;100.00
71666;BME280;59503;53.486;10.196;2023-02-16T07:46:21;102199.66;;;2.31;100.00
71666;BME280;59503;53.486;10.196;2023-02-16T07:48:47;102207.44;;;2.37;100.00
71666;BME280;59503;53.486;10.196;2023-02-16T07:51:20;102210.91;;;2.43;100.00
71666;BME280;59503;53.486;10.196;2023-02-16T07:53:45;102210.34;;;2.51;100.00
71666;BME280;59503;53.486;10.196;2023-02-16T07:56:21;102204.44;;;2.49;100.00
71666;BME280;59503;53.486;10.196;2023-02-16T07:58:47;102204.44;;;2.49;100.00
71666;BME280;59503;53.486;10.196;2023-02-16T08:01:15;102212.47;;;2.59;100.00
71666;BME280;59503;53.486;10.196;2023-02-16T08:03:41;102200.69;;;2.60;100.00
71666;BME280;59503;53.486;10.196;2023-02-16T08:06:07;102201.44;;;2.71;100.00
71666;BME280;59503;53.486;10.196;2023-02-16T08:08:34;102193.13;;;2.77;100.00
71666;BME280;59503;53.486;10.196;2023-02-16T08:11:07;102205.69;;;2.87;100.00
71666;BME280;59503;53.486;10.196;2023-02-16T08:13:33;102203.81;;;2.92;100.00
71666;BME280;59503;53.486;10.196;2023-02-16T08:15:58;102209.63;;;3.04;100.00
71666;BME280;59503;53.486;10.196;2023-02-16T08:18:23;102214.75;;;3.06;100.00
71666;BME280;59503;53.486;10.196;2023-02-16T08:20:49;102229.19;;;3.15;100.00
71666;BME280;59503;53.486;10.196;2023-02-16T08:23:14;102211.13;;;3.30;100.00
71666;BME280;59503;53.486;10.196;2023-02-16T08:25:40;102206.00;;;3.34;100.00
71666;BME280;59503;53.486;10.196;2023-02-16T08:28:05;102215.88;;;3.43;100.00
71666;BME280;59503;53.486;10.196;2023-02-16T08:30:32;102204.56;;;3.46;100.00
71666;BME280;59503;53.486;10.196;2023-02-16T08:32:59;102204.03;;;3.49;100.00
71666;BME280;59503;53.486;10.196;2023-02-16T08:35:28;102209.34;;;3.59;100.00
71666;BME280;59503;53.486;10.196;2023-02-16T08:37:57;102209.56;;;3.63;100.00
71666;BME280;59503;53.486;10.196;2023-02-16T08:40:23;102199.06;;;3.66;100.00
71666;BME280;59503;53.486;10.196;2023-02-16T08:42:51;102196.81;;;3.78;100.00
71666;BME280;59503;53.486;10.196;2023-02-16T08:45:16;102182.31;;;3.79;100.00
71666;BME280;59503;53.486;10.196;2023-02-16T08:47:42;102191.31;;;3.94;100.00
71666;BME280;59503;53.486;10.196;2023-02-16T08:50:10;102196.09;;;4.02;100.00
71666;BME280;59503;53.486;10.196;2023-02-16T08:52:36;102196.63;;;4.04;100.00
71666;BME280;59503;53.486;10.196;2023-02-16T08:55:03;102194.66;;;4.14;100.00
71666;BME280;59503;53.486;10.196;2023-02-16T08:57:32;102189.50;;;4.18;100.00
71666;BME280;59503;53.486;10.196;2023-02-16T08:59:58;102187.78;;;4.27;100.00
71666;BME280;59503;53.486;10.196;2023-02-16T09:02:42;102190.91;;;4.39;100.00
71666;BME280;59503;53.486;10.196;2023-02-16T09:05:09;102187.91;;;4.40;100.00
71666;BME280;59503;53.486;10.196;2023-02-16T09:07:34;102197.81;;;4.50;100.00
71666;BME280;59503;53.486;10.196;2023-02-16T09:10:01;102175.47;;;4.49;100.00
71666;BME280;59503;53.486;10.196;2023-02-16T09:12:27;102177.16;;;4.64;100.00
71666;BME280;59503;53.486;10.196;2023-02-16T09:14:54;102184.19;;;4.65;100.00
71666;BME280;59503;53.486;10.196;2023-02-16T09:17:19;102177.63;;;4.71;100.00
71666;BME280;59503;53.486;10.196;2023-02-16T09:19:45;102168.47;;;4.72;100.00
71666;BME280;59503;53.486;10.196;2023-02-16T09:22:10;102181.25;;;4.85;100.00
71666;BME280;59503;53.486;10.196;2023-02-16T09:24:36;102180.38;;;4.89;100.00
71666;BME280;59503;53.486;10.196;2023-02-16T09:27:01;102181.69;;;4.92;100.00
71666;BME280;59503;53.486;10.196;2023-02-16T09:29:28;102195.59;;;4.99;100.00
71666;BME280;59503;53.486;10.196;2023-02-16T09:31:53;102215.59;;;5.17;100.00
71666;BME280;59503;53.486;10.196;2023-02-16T09:34:21;102197.25;;;5.19;100.00
71666;BME280;59503;53.486;10.196;2023-02-16T09:36:48;102209.78;;;5.28;100.00
71666;BME280;59503;53.486;10.196;2023-02-16T09:39:15;102203.25;;;5.34;100.00
71666;BME280;59503;53.486;10.196;2023-02-16T09:42:05;102195.16;;;5.34;100.00
71666;BME280;59503;53.486;10.196;2023-02-16T09:47:20;102199.38;;;5.40;100.00
71666;BME280;59503;53.486;10.196;2023-02-16T09:49:48;102212.94;;;5.54;100.00
71666;BME280;59503;53.486;10.196;2023-02-16T09:52:36;102215.19;;;5.65;100.00
71666;BME280;59503;53.486;10.196;2023-02-16T09:55:07;102224.88;;;5.85;100.00
71666;BME280;59503;53.486;10.196;2023-02-16T09:57:41;102216.84;;;5.98;100.00
71666;BME280;59503;53.486;10.196;2023-02-16T10:00:16;102228.38;;;6.04;100.00
71666;BME280;59503;53.486;10.196;2023-02-16T10:05:57;102213.50;;;6.06;100.00
71666;BME280;59503;53.486;10.196;2023-02-16T10:08:31;102211.50;;;6.12;100.00
71666;BME280;59503;53.486;10.196;2023-02-16T10:13:39;102208.66;;;6.03;100.00
71666;BME280;59503;53.486;10.196;2023-02-16T10:16:12;102212.22;;;6.17;100.00
71666;BME280;59503;53.486;10.196;2023-02-16T10:18:45;102206.81;;;6.17;100.00
71666;BME280;59503;53.486;10.196;2023-02-16T10:21:22;102217.47;;;6.41;100.00
71666;BME280;59503;53.486;10.196;2023-02-16T10:23:57;102225.69;;;6.50;100.00
71666;BME280;59503;53.486;10.196;2023-02-16T10:26:33;102220.09;;;6.73;100.00
71666;BME280;59503;53.486;10.196;2023-02-16T10:29:06;102217.31;;;6.92;100.00
71666;BME280;59503;53.486;10.196;2023-02-16T10:31:57;102214.00;;;7.08;100.00
71666;BME280;59503;53.486;10.196;2023-02-16T10:34:49;102219.50;;;7.17;100.00
71666;BME280;59503;53.486;10.196;2023-02-16T10:37:22;102217.84;;;7.29;100.00
71666;BME280;59503;53.486;10.196;2023-02-16T10:40:08;102216.84;;;7.39;100.00
71666;BME280;59503;53.486;10.196;2023-02-16T10:45:30;102220.13;;;7.36;100.00
71666;BME280;59503;53.486;10.196;2023-02-16T10:47:58;102208.75;;;7.25;100.00
71666;BME280;59503;53.486;10.196;2023-02-16T10:50:27;102203.78;;;7.19;100.00
71666;BME280;59503;53.486;10.196;2023-02-16T10:53:00;102212.88;;;7.09;100.00
71666;BME280;59503;53.486;10.196;2023-02-16T10:55:28;102215.78;;;7.13;100.00
71666;BME280;59503;53.486;10.196;2023-02-16T10:57:59;102216.59;;;7.13;100.00
71666;BME280;59503;53.486;10.196;2023-02-16T11:01:00;102208.16;;;7.15;100.00
71666;BME280;59503;53.486;10.196;2023-02-16T11:03:30;102211.28;;;7.22;100.00
71666;BME280;59503;53.486;10.196;2023-02-16T11:06:19;102217.28;;;7.19;100.00
71666;BME280;59503;53.486;10.196;2023-02-16T11:08:54;102221.97;;;7.27;100.00
71666;BME280;59503;53.486;10.196;2023-02-16T11:11:26;102216.66;;;7.35;100.00
71666;BME280;59503;53.486;10.196;2023-02-16T11:14:06;102207.16;;;7.24;100.00
71666;BME280;59503;53.486;10.196;2023-02-16T11:16:33;102210.03;;;7.28;100.00
71666;BME280;59503;53.486;10.196;2023-02-16T11:19:06;102207.44;;;7.23;100.00
71666;BME280;59503;53.486;10.196;2023-02-16T11:21:51;102201.72;;;7.38;100.00
71666;BME280;59503;53.486;10.196;2023-02-16T11:27:03;102214.34;;;7.42;100.00
71666;BME280;59503;53.486;10.196;2023-02-16T11:29:30;102210.63;;;7.38;100.00
71666;BME280;59503;53.486;10.196;2023-02-16T11:31:56;102212.59;;;7.46;100.00
71666;BME280;59503;53.486;10.196;2023-02-16T11:34:32;102218.31;;;7.45;100.00
71666;BME280;59503;53.486;10.196;2023-02-16T11:37:16;102195.28;;;7.47;100.00
71666;BME280;59503;53.486;10.196;2023-02-16T11:39:52;102199.28;;;7.50;100.00
71666;BME280;59503;53.486;10.196;2023-02-16T11:42:30;102191.66;;;7.52;100.00
71666;BME280;59503;53.486;10.196;2023-02-16T11:44:58;102193.13;;;7.58;100.00
71666;BME280;59503;53.486;10.196;2023-02-16T11:47:36;102194.13;;;7.62;100.00
71666;BME280;59503;53.486;10.196;2023-02-16T11:50:18;102194.50;;;7.69;100.00
71666;BME280;59503;53.486;10.196;2023-02-16T11:52:52;102193.50;;;7.65;100.00
71666;BME280;59503;53.486;10.196;2023-02-16T11:57:51;102198.50;;;7.72;100.00
71666;BME280;59503;53.486;10.196;2023-02-16T12:00:20;102195.91;;;7.67;100.00
71666;BME280;59503;53.486;10.196;2023-02-16T12:03:08;102202.06;;;7.58;100.00
71666;BME280;59503;53.486;10.196;2023-02-16T12:08:34;102194.38;;;7.74;100.00
71666;BME280;59503;53.486;10.196;2023-02-16T12:16:05;102184.06;;;7.76;100.00
71666;BME280;59503;53.486;10.196;2023-02-16T12:21:43;102180.47;;;7.67;100.00
71666;BME280;59503;53.486;10.196;2023-02-16T12:27:36;102171.75;;;7.70;100.00
71666;BME280;59503;53.486;10.196;2023-02-16T12:30:22;102170.66;;;7.71;100.00
71666;BME280;59503;53.486;10.196;2023-02-16T12:33:02;102163.50;;;7.75;100.00
71666;BME280;59503;53.486;10.196;2023-02-16T12:35:55;102166.13;;;7.67;100.00
71666;BME280;59503;53.486;10.196;2023-02-16T12:43:43;102159.88;;;7.57;100.00
71666;BME280;59503;53.486;10.196;2023-02-16T12:46:26;102157.09;;;7.49;100.00
71666;BME280;59503;53.486;10.196;2023-02-16T12:49:25;102163.28;;;7.49;100.00
71666;BME280;59503;53.486;10.196;2023-02-16T12:51:54;102160.28;;;7.51;100.00
71666;BME280;59503;53.486;10.196;2023-02-16T12:54:27;102153.72;;;7.43;100.00
71666;BME280;59503;53.486;10.196;2023-02-16T12:57:11;102160.41;;;7.46;100.00
71666;BME280;59503;53.486;10.196;2023-02-16T12:59:45;102154.03;;;7.42;100.00
71666;BME280;59503;53.486;10.196;2023-02-16T13:02:23;102147.50;;;7.43;100.00
71666;BME280;59503;53.486;10.196;2023-02-16T13:04:58;102141.19;;;7.47;100.00
71666;BME280;59503;53.486;10.196;2023-02-16T13:07:31;102136.84;;;7.46;100.00
71666;BME280;59503;53.486;10.196;2023-02-16T13:13:05;102125.84;;;7.43;100.00
71666;BME280;59503;53.486;10.196;2023-02-16T13:15:45;102127.47;;;7.44;100.00
71666;BME280;59503;53.486;10.196;2023-02-16T13:18:19;102126.97;;;7.42;100.00
71666;BME280;59503;53.486;10.196;2023-02-16T13:21:09;102134.97;;;7.47;100.00
71666;BME280;59503;53.486;10.196;2023-02-16T13:26:38;102124.97;;;7.56;100.00
71666;BME280;59503;53.486;10.196;2023-02-16T13:29:18;102126.09;;;7.55;100.00
71666;BME280;59503;53.486;10.196;2023-02-16T13:45:46;102105.56;;;7.76;100.00
71666;BME280;59503;53.486;10.196;2023-02-16T13:48:44;102098.47;;;7.67;100.00
71666;BME280;59503;53.486;10.196;2023-02-16T13:51:22;102094.19;;;7.66;100.00
71666;BME280;59503;53.486;10.196;2023-02-16T13:53:55;102096.47;;;7.72;100.00
71666;BME280;59503;53.486;10.196;2023-02-16T13:58:54;102093.34;;;7.87;100.00
71666;BME280;59503;53.486;10.196;2023-02-16T14:03:53;102088.81;;;7.96;100.00
71666;BME280;59503;53.486;10.196;2023-02-16T14:15:15;102099.91;;;7.95;100.00
71666;BME280;59503;53.486;10.196;2023-02-16T14:17:33;102096.66;;;8.06;100.00
71666;BME280;59503;53.486;10.196;2023-02-16T14:20:17;102094.22;;;7.96;100.00
71666;BME280;59503;53.486;10.196;2023-02-16T14:22:51;102097.66;;;7.88;100.00
71666;BME280;59503;53.486;10.196;2023-02-16T14:27:57;102081.00;;;8.03;100.00
71666;BME280;59503;53.486;10.196;2023-02-16T14:30:28;102078.03;;;8.13;100.00
71666;BME280;59503;53.486;10.196;2023-02-16T14:35:30;102078.50;;;8.15;100.00
71666;BME280;59503;53.486;10.196;2023-02-16T14:38:17;102070.75;;;8.22;100.00